Terminal Aerodrome Forecast
Issued by NWS Binghamton, NY

Home | Current Version | Previous Version | Text Only | Print | Product List | Glossary On
Versions: 1 2 3 4 5 6 7 8 9 10 11 12 13 14 15 16 17 18
000
FTUS41 KBGM 181134
TAFAVP
TAF
KAVP 181134Z 1812/1912 11004KT P6SM SKC
     FM181400 26008KT P6SM SCT050
     FM181700 30015G25KT P6SM SCT050
     FM190200 02010KT P6SM SKC
     FM190700 06010KT P6SM SKC=

USA.gov is the U.S. government's official web portal to all federal, state and local government web resources and services.